Time;durP1;ratioP1;P1;durP2;ratioP2;P2;SDS_P1;SDS_P2;PMS_P1;PMS_P2;Temp;Humidity;BMP_temperature;BMP_pressure;BME280_temperature;BME280_humidity;BME280_pressure;Samples;Min_cycle;Max_cycle;Signal;HPM_P1;HPM_P2
2021/01/02 00:01:35;;;;;;;19.08;13.23;;;4.70;94.70;;;;;;4858902;29;20053;-56
2021/01/02 00:04:13;;;;;;;20.30;12.82;;;4.70;94.60;;;;;;4858651;29;20097;-56
2021/01/02 00:06:53;;;;;;;17.90;12.48;;;4.80;94.60;;;;;;4873805;29;20064;-56
2021/01/02 00:09:22;;;;;;;17.85;11.65;;;4.80;94.40;;;;;;4895851;29;20063;-55
2021/01/02 00:12:12;;;;;;;16.40;11.95;;;4.70;94.50;;;;;;4934927;29;20059;-56
2021/01/02 00:14:51;;;;;;;14.20;11.38;;;4.70;94.80;;;;;;4952791;29;20143;-56
2021/01/02 00:17:23;;;;;;;21.02;12.48;;;4.70;94.80;;;;;;4953434;28;20043;-56
2021/01/02 00:20:26;;;;;;;21.52;12.98;;;4.80;94.60;;;;;;4993263;28;20038;-55
2021/01/02 00:22:57;;;;;;;16.83;11.63;;;4.80;94.40;;;;;;4993265;28;20168;-56
2021/01/02 00:25:27;;;;;;;16.08;10.90;;;4.80;94.70;;;;;;4993615;28;20050;-56
2021/01/02 00:28:17;;;;;;;18.83;12.35;;;4.70;94.70;;;;;;4993409;28;20042;-55
2021/01/02 00:30:58;;;;;;;15.70;10.98;;;4.70;94.80;;;;;;4993698;28;20053;-56
2021/01/02 00:33:57;;;;;;;18.70;11.45;;;4.60;95.00;;;;;;4993240;28;20464;-56
2021/01/02 00:36:54;;;;;;;20.30;11.43;;;4.60;95.20;;;;;;4993363;28;20049;-56
2021/01/02 00:39:58;;;;;;;18.60;10.60;;;4.60;95.40;;;;;;4992439;28;20060;-56
2021/01/02 00:42:25;;;;;;;15.32;10.32;;;4.60;95.50;;;;;;4993294;28;20053;-56
2021/01/02 00:44:56;;;;;;;15.95;10.40;;;4.60;95.50;;;;;;4993395;28;20177;-56
2021/01/02 00:47:27;;;;;;;13.15;9.55;;;4.60;95.40;;;;;;4993033;28;20485;-56
2021/01/02 00:49:55;;;;;;;16.08;10.70;;;4.60;95.20;;;;;;4993128;28;20049;-56
2021/01/02 00:52:45;;;;;;;16.17;10.63;;;4.60;95.30;;;;;;4993279;28;20108;-56
2021/01/02 00:55:48;;;;;;;14.32;9.18;;;4.60;95.30;;;;;;4993217;28;20104;-55
2021/01/02 00:58:22;;;;;;;15.10;10.38;;;4.60;95.30;;;;;;4993014;28;20073;-55
2021/01/02 01:01:00;;;;;;;21.33;10.20;;;4.60;95.20;;;;;;4993263;28;20058;-56
2021/01/02 01:04:17;;;;;;;14.38;9.43;;;4.60;95.30;;;;;;4992892;28;20484;-56
2021/01/02 01:06:46;;;;;;;12.20;9.18;;;4.60;95.30;;;;;;4913829;29;20060;-55
2021/01/02 01:09:14;;;;;;;15.43;10.00;;;4.60;95.30;;;;;;4914134;29;20040;-56
2021/01/02 01:11:45;;;;;;;12.23;9.90;;;4.60;95.30;;;;;;4914183;29;20101;-56
2021/01/02 01:14:10;;;;;;;13.48;9.52;;;4.60;95.30;;;;;;4913959;29;20140;-56
2021/01/02 01:16:43;;;;;;;15.85;9.38;;;4.60;95.30;;;;;;4913784;29;20528;-56
2021/01/02 01:19:11;;;;;;;12.27;9.32;;;4.60;95.30;;;;;;4913947;29;20050;-56
2021/01/02 01:21:44;;;;;;;13.70;8.70;;;4.70;95.30;;;;;;4913845;29;20506;-56
2021/01/02 01:24:14;;;;;;;12.77;8.20;;;4.70;95.20;;;;;;4914092;29;20048;-56
2021/01/02 01:26:58;;;;;;;11.70;8.85;;;4.70;95.20;;;;;;4914047;29;20048;-56
2021/01/02 01:29:49;;;;;;;11.52;8.82;;;4.70;95.10;;;;;;4913935;29;20063;-56
2021/01/02 01:32:22;;;;;;;11.57;8.00;;;4.70;95.20;;;;;;4876316;29;20543;-56
2021/01/02 01:34:57;;;;;;;13.93;8.07;;;4.70;95.30;;;;;;4876077;29;20045;-56
2021/01/02 01:37:29;;;;;;;11.82;8.15;;;4.70;95.20;;;;;;4929325;28;20078;-56
2021/01/02 01:39:55;;;;;;;12.98;7.40;;;4.80;95.10;;;;;;4971064;28;20085;-55
2021/01/02 01:42:41;;;;;;;14.93;8.10;;;4.70;95.10;;;;;;4971110;28;20047;-56
2021/01/02 01:45:18;;;;;;;10.95;8.02;;;4.70;95.20;;;;;;4970926;28;20449;-56
2021/01/02 01:48:04;;;;;;;11.48;7.25;;;4.70;95.20;;;;;;4971273;28;20069;-56
2021/01/02 01:51:01;;;;;;;13.30;7.40;;;4.70;95.30;;;;;;4972957;28;20078;-56
2021/01/02 01:54:09;;;;;;;21.92;7.65;;;4.70;95.30;;;;;;4898521;29;20052;-56
2021/01/02 01:56:42;;;;;;;11.68;7.45;;;4.70;95.30;;;;;;4895548;29;20510;-56
2021/01/02 01:59:27;;;;;;;12.48;6.68;;;4.70;95.10;;;;;;4898404;29;20059;-56
2021/01/02 02:01:56;;;;;;;11.20;6.43;;;4.80;95.10;;;;;;4898140;29;20057;-56
2021/01/02 02:04:31;;;;;;;9.63;7.40;;;4.80;95.10;;;;;;4898342;29;20063;-56
2021/01/02 02:07:01;;;;;;;11.40;6.68;;;4.70;95.20;;;;;;4898090;29;20408;-56
2021/01/02 02:09:41;;;;;;;12.82;7.43;;;4.70;95.20;;;;;;4918775;29;20044;-56
2021/01/02 02:12:31;;;;;;;10.10;6.85;;;4.70;95.20;;;;;;4935892;29;20063;-56
2021/01/02 02:15:00;;;;;;;16.60;7.17;;;4.70;95.10;;;;;;4935464;29;20134;-56
2021/01/02 02:17:40;;;;;;;13.20;6.53;;;4.70;95.00;;;;;;4935567;29;20778;-56
2021/01/02 02:20:10;;;;;;;12.05;6.88;;;4.70;95.00;;;;;;4935766;29;20490;-56
2021/01/02 02:22:38;;;;;;;9.68;7.38;;;4.70;95.10;;;;;;4935995;29;20043;-56
2021/01/02 02:25:13;;;;;;;12.32;7.18;;;4.70;95.00;;;;;;4935786;29;20093;-56
2021/01/02 02:27:43;;;;;;;8.63;6.28;;;4.70;94.80;;;;;;4935665;29;20493;-56
2021/01/02 02:30:19;;;;;;;11.70;7.13;;;4.70;94.80;;;;;;4962146;28;20046;-56
2021/01/02 02:32:47;;;;;;;12.20;7.30;;;4.70;94.90;;;;;;4995975;28;20118;-56
2021/01/02 02:35:14;;;;;;;11.52;6.80;;;4.70;94.80;;;;;;4995817;28;20052;-56
2021/01/02 02:37:46;;;;;;;10.57;6.70;;;4.70;94.80;;;;;;4995442;28;20102;-56
2021/01/02 02:40:13;;;;;;;14.10;8.43;;;4.70;94.90;;;;;;4995358;28;20038;-56
2021/01/02 02:42:45;;;;;;;15.68;7.28;;;4.70;94.90;;;;;;4995426;28;20046;-56
2021/01/02 02:45:13;;;;;;;11.45;6.70;;;4.70;94.80;;;;;;4995685;28;20047;-56
2021/01/02 02:47:41;;;;;;;11.40;6.80;;;4.70;94.80;;;;;;4995387;28;20073;-56
2021/01/02 02:50:27;;;;;;;11.82;7.32;;;4.70;94.70;;;;;;4995361;28;20129;-56
2021/01/02 02:53:09;;;;;;;12.20;7.38;;;4.70;94.60;;;;;;4995147;28;20057;-56
2021/01/02 02:55:39;;;;;;;10.70;7.40;;;4.70;94.60;;;;;;4995378;28;20050;-56
2021/01/02 02:58:07;;;;;;;9.20;6.57;;;4.60;94.60;;;;;;4995285;28;20054;-56
2021/01/02 03:00:33;;;;;;;13.75;7.07;;;4.60;94.60;;;;;;4994905;28;20539;-56
2021/01/02 03:03:00;;;;;;;11.85;7.32;;;4.50;94.60;;;;;;4994414;28;20050;-56
2021/01/02 03:05:26;;;;;;;9.98;6.68;;;4.40;94.70;;;;;;4995059;28;20477;-56
2021/01/02 03:07:52;;;;;;;12.82;7.72;;;4.30;94.70;;;;;;4995138;28;20058;-56
2021/01/02 03:10:20;;;;;;;14.88;7.00;;;4.30;94.60;;;;;;4995318;28;20061;-56
2021/01/02 03:12:50;;;;;;;9.02;6.97;;;4.20;94.50;;;;;;4995260;28;20153;-55
2021/01/02 03:15:18;;;;;;;9.35;6.88;;;4.10;94.70;;;;;;4994916;28;20042;-56
2021/01/02 03:17:46;;;;;;;9.15;6.75;;;4.10;94.80;;;;;;4994799;28;20054;-56
2021/01/02 03:20:13;;;;;;;13.13;7.05;;;4.10;94.80;;;;;;4994868;28;20425;-56
2021/01/02 03:22:40;;;;;;;13.05;6.95;;;4.00;94.90;;;;;;4995055;28;20043;-56
2021/01/02 03:25:10;;;;;;;8.77;6.28;;;4.00;94.90;;;;;;4994523;28;20555;-56
2021/01/02 03:27:36;;;;;;;10.30;6.70;;;3.90;95.00;;;;;;4994895;28;20068;-56
2021/01/02 03:30:08;;;;;;;10.30;7.72;;;3.80;95.00;;;;;;4994517;28;20050;-56
2021/01/02 03:32:34;;;;;;;13.13;7.45;;;3.90;95.00;;;;;;4994569;28;20062;-56
2021/01/02 03:35:00;;;;;;;12.75;7.78;;;3.70;94.60;;;;;;4994320;28;20495;-56
2021/01/02 03:37:26;;;;;;;12.25;6.88;;;3.70;95.00;;;;;;4994588;28;20046;-56
2021/01/02 03:39:52;;;;;;;10.27;7.18;;;3.60;94.90;;;;;;4994365;28;20050;-56
2021/01/02 03:42:17;;;;;;;11.38;7.00;;;3.60;95.00;;;;;;4994342;28;20046;-56
2021/01/02 03:44:43;;;;;;;10.63;6.88;;;3.60;94.80;;;;;;4994265;28;20050;-56
2021/01/02 03:47:09;;;;;;;10.60;7.78;;;3.50;94.70;;;;;;4994339;28;20046;-56
2021/01/02 03:49:36;;;;;;;11.30;7.85;;;3.40;95.10;;;;;;4994255;28;20504;-56
2021/01/02 03:52:04;;;;;;;11.15;7.20;;;3.40;95.00;;;;;;4994407;28;20046;-57
2021/01/02 03:54:30;;;;;;;9.07;7.00;;;3.30;95.30;;;;;;4994132;28;20053;-56
2021/01/02 03:56:56;;;;;;;10.00;6.78;;;3.30;95.50;;;;;;4994128;28;20049;-56
2021/01/02 03:59:22;;;;;;;11.90;7.32;;;3.30;95.30;;;;;;4994042;28;20050;-56
2021/01/02 04:01:55;;;;;;;13.95;8.20;;;3.30;95.30;;;;;;4992935;28;20046;-56
2021/01/02 04:04:21;;;;;;;10.55;7.18;;;3.30;95.40;;;;;;4993898;28;20507;-56
2021/01/02 04:06:47;;;;;;;11.07;7.05;;;3.20;95.30;;;;;;4993741;28;20378;-56
2021/01/02 04:09:13;;;;;;;12.15;7.03;;;3.20;95.30;;;;;;4993591;28;20066;-56
2021/01/02 04:11:42;;;;;;;13.77;8.00;;;3.20;95.20;;;;;;4993683;28;20503;-56
2021/01/02 04:14:09;;;;;;;9.50;6.63;;;3.10;95.00;;;;;;4993392;28;20069;-56
2021/01/02 04:16:37;;;;;;;10.07;7.25;;;3.10;95.20;;;;;;4993810;28;20047;-55
2021/01/02 04:19:04;;;;;;;11.55;7.50;;;3.10;95.20;;;;;;4993805;28;20073;-56
2021/01/02 04:21:30;;;;;;;8.98;6.65;;;3.00;95.20;;;;;;4993479;28;20392;-56
2021/01/02 04:23:56;;;;;;;10.00;6.60;;;3.00;95.30;;;;;;4993698;28;20046;-56
2021/01/02 04:26:23;;;;;;;9.93;6.28;;;3.00;95.10;;;;;;4993528;28;20140;-56
2021/01/02 04:28:52;;;;;;;11.10;6.95;;;3.00;95.10;;;;;;4993424;28;20053;-56
2021/01/02 04:31:22;;;;;;;10.93;6.13;;;3.10;95.10;;;;;;4993237;28;20042;-56
2021/01/02 04:33:49;;;;;;;8.73;6.40;;;3.20;95.10;;;;;;4993343;28;20049;-56
2021/01/02 04:36:16;;;;;;;11.20;6.50;;;3.20;95.10;;;;;;4993489;28;20120;-56
2021/01/02 04:38:43;;;;;;;9.57;6.32;;;3.20;94.90;;;;;;4993408;28;20049;-56
2021/01/02 04:41:12;;;;;;;10.38;6.65;;;3.20;94.60;;;;;;4993224;28;20485;-55
2021/01/02 04:43:38;;;;;;;;;;;3.20;94.80;;;;;;4993674;28;20050;-56
2021/01/02 04:46:05;;;;;;;9.30;7.35;;;3.20;94.80;;;;;;4993444;28;20028;-56
2021/01/02 04:48:31;;;;;;;11.93;7.03;;;3.20;94.80;;;;;;4993297;28;20042;-56
2021/01/02 04:50:57;;;;;;;8.95;7.13;;;3.20;94.60;;;;;;4993070;28;20048;-56
2021/01/02 04:53:24;;;;;;;13.57;6.88;;;3.20;94.80;;;;;;4993055;28;20436;-56
2021/01/02 04:55:52;;;;;;;10.85;6.90;;;3.20;94.70;;;;;;4992907;28;20105;-56
2021/01/02 04:58:18;;;;;;;12.93;7.30;;;3.20;94.50;;;;;;4993145;28;20050;-56
2021/01/02 05:00:47;;;;;;;8.55;6.85;;;3.10;94.60;;;;;;4993155;28;20057;-56
2021/01/02 05:03:12;;;;;;;9.68;6.60;;;3.10;94.80;;;;;;4993101;28;20061;-56
2021/01/02 05:05:39;;;;;;;12.43;6.95;;;3.10;94.80;;;;;;4992829;28;20481;-56
2021/01/02 05:08:06;;;;;;;14.50;7.43;;;3.00;95.10;;;;;;4992711;28;20061;-56
2021/01/02 05:10:34;;;;;;;10.20;7.18;;;3.00;95.30;;;;;;4992741;28;20038;-56
2021/01/02 05:13:13;;;;;;;10.75;7.13;;;3.10;95.30;;;;;;4992755;28;20039;-56
2021/01/02 05:15:39;;;;;;;11.70;6.97;;;3.10;95.70;;;;;;4992800;28;20061;-55
2021/01/02 05:18:05;;;;;;;10.35;7.25;;;3.10;95.60;;;;;;4992811;28;20293;-55
2021/01/02 05:20:32;;;;;;;14.00;7.22;;;3.20;95.40;;;;;;4992947;28;20054;-56
2021/01/02 05:23:10;;;;;;;11.13;6.80;;;3.30;95.30;;;;;;4992938;28;20456;-56
2021/01/02 05:25:37;;;;;;;11.38;7.03;;;3.30;95.10;;;;;;4995205;28;20061;-56
2021/01/02 05:28:03;;;;;;;14.45;7.20;;;3.30;94.90;;;;;;4996829;28;20543;-56
2021/01/02 05:30:31;;;;;;;8.85;6.07;;;3.30;95.00;;;;;;4996962;28;20082;-56
2021/01/02 05:32:58;;;;;;;7.65;5.82;;;3.30;94.90;;;;;;4996951;28;20070;-56
2021/01/02 05:35:30;;;;;;;8.82;6.72;;;3.20;94.70;;;;;;4996870;28;20046;-56
2021/01/02 05:38:18;;;;;;;14.65;7.18;;;3.20;95.10;;;;;;4996782;28;20042;-55
2021/01/02 05:40:45;;;;;;;13.60;7.82;;;3.20;94.90;;;;;;4996683;28;20061;-56
2021/01/02 05:43:13;;;;;;;10.95;7.53;;;3.20;95.00;;;;;;4996791;28;20046;-55
2021/01/02 05:45:39;;;;;;;14.85;7.65;;;3.20;95.10;;;;;;4996537;28;20109;-55
2021/01/02 05:48:11;;;;;;;10.80;8.63;;;3.30;95.20;;;;;;4996449;28;20507;-56
2021/01/02 05:50:51;;;;;;;12.90;7.68;;;3.40;95.10;;;;;;4996780;28;20054;-56
2021/01/02 05:53:24;;;;;;;16.90;8.45;;;3.40;95.20;;;;;;4996548;28;20050;-56
2021/01/02 05:56:07;;;;;;;11.75;7.78;;;3.40;95.30;;;;;;4996215;28;20515;-56
2021/01/02 05:58:39;;;;;;;11.30;7.60;;;3.40;95.30;;;;;;4996254;28;20042;-56
2021/01/02 06:01:13;;;;;;;14.30;8.75;;;3.50;95.20;;;;;;4996293;28;20046;-55
2021/01/02 06:03:41;;;;;;;12.60;8.32;;;3.50;95.10;;;;;;4996320;28;20053;-56
2021/01/02 06:06:11;;;;;;;14.13;8.07;;;3.50;95.10;;;;;;4996208;28;20116;-56
2021/01/02 06:08:45;;;;;;;12.13;7.68;;;3.60;95.20;;;;;;4995965;28;20058;-56
2021/01/02 06:11:13;;;;;;;11.30;7.88;;;3.60;95.10;;;;;;4996300;28;20081;-56
2021/01/02 06:13:49;;;;;;;15.80;8.85;;;3.70;95.00;;;;;;4996054;28;20047;-56
2021/01/02 06:16:15;;;;;;;11.63;7.93;;;3.70;95.10;;;;;;4996077;28;20050;-56
2021/01/02 06:18:42;;;;;;;16.35;8.20;;;3.70;95.20;;;;;;4995402;28;20101;-56
2021/01/02 06:21:17;;;;;;;13.52;8.05;;;3.80;95.20;;;;;;4995369;28;20047;-56
2021/01/02 06:23:44;;;;;;;13.18;8.15;;;3.80;95.20;;;;;;4995532;28;20077;-56
2021/01/02 06:26:12;;;;;;;13.60;8.05;;;3.80;95.00;;;;;;4995935;28;20238;-56
2021/01/02 06:28:40;;;;;;;12.45;7.88;;;3.80;95.10;;;;;;4995614;28;20056;-56
2021/01/02 06:31:16;;;;;;;11.30;7.28;;;3.90;95.20;;;;;;4995827;28;20404;-56
2021/01/02 06:33:47;;;;;;;12.27;7.43;;;3.90;95.30;;;;;;4995518;28;20072;-56
2021/01/02 06:36:33;;;;;;;13.02;7.75;;;3.90;95.20;;;;;;4995570;28;20052;-56
2021/01/02 06:39:18;;;;;;;11.82;7.63;;;4.00;95.30;;;;;;4995536;28;20054;-56
2021/01/02 06:41:44;;;;;;;12.68;8.50;;;3.90;95.30;;;;;;4995545;28;20508;-55
2021/01/02 06:44:10;;;;;;;11.00;7.70;;;3.90;95.40;;;;;;4995706;28;20046;-56
2021/01/02 06:46:36;;;;;;;11.93;8.02;;;3.90;95.40;;;;;;4995585;28;20050;-56
2021/01/02 06:49:32;;;;;;;14.95;8.73;;;3.90;95.40;;;;;;4995619;28;20129;-56
2021/01/02 06:51:57;;;;;;;11.73;8.13;;;3.90;95.40;;;;;;4995400;28;20096;-56
2021/01/02 06:54:23;;;;;;;15.05;8.38;;;3.90;95.30;;;;;;4995305;28;20129;-56
2021/01/02 06:57:04;;;;;;;15.75;8.55;;;3.90;95.40;;;;;;4995044;28;20132;-56
2021/01/02 06:59:30;;;;;;;11.73;7.75;;;3.90;95.40;;;;;;4995413;28;20100;-56
2021/01/02 07:01:56;;;;;;;17.65;7.75;;;3.90;95.30;;;;;;4995380;28;20050;-56
2021/01/02 07:04:36;;;;;;;16.73;8.55;;;4.00;95.20;;;;;;4995105;28;20066;-56
2021/01/02 07:07:04;;;;;;;14.43;8.32;;;3.90;95.10;;;;;;4994985;28;20077;-56
2021/01/02 07:09:31;;;;;;;13.67;8.77;;;3.90;95.20;;;;;;4995344;28;20081;-56
2021/01/02 07:12:11;;;;;;;13.77;8.35;;;3.90;95.20;;;;;;4995188;28;20073;-56
2021/01/02 07:14:37;;;;;;;13.10;8.57;;;3.90;95.20;;;;;;4995475;28;20132;-56
2021/01/02 07:17:11;;;;;;;16.85;9.02;;;3.90;95.20;;;;;;4994965;28;20082;-56
2021/01/02 07:19:42;;;;;;;14.00;8.70;;;3.90;95.30;;;;;;4993610;28;20051;-56
2021/01/02 07:22:16;;;;;;;13.60;8.65;;;3.90;95.30;;;;;;4994882;28;20420;-56
2021/01/02 07:24:49;;;;;;;13.38;8.52;;;3.90;95.20;;;;;;4994694;28;20045;-56
2021/01/02 07:27:18;;;;;;;17.08;8.70;;;3.90;95.30;;;;;;4994868;28;20057;-55
2021/01/02 07:29:46;;;;;;;14.48;8.60;;;3.80;95.30;;;;;;4994439;28;20536;-56
2021/01/02 07:32:17;;;;;;;14.73;9.07;;;3.80;95.30;;;;;;4994658;28;20114;-55
2021/01/02 07:34:45;;;;;;;12.85;7.68;;;3.80;95.10;;;;;;4994596;28;20042;-56
2021/01/02 07:37:12;;;;;;;16.73;8.90;;;3.80;95.20;;;;;;4994680;28;20392;-56
2021/01/02 07:39:39;;;;;;;15.60;8.60;;;3.90;95.20;;;;;;4994323;28;20497;-56
2021/01/02 07:42:08;;;;;;;10.40;7.38;;;3.80;95.10;;;;;;4994504;28;20042;-56
2021/01/02 07:44:35;;;;;;;13.98;8.50;;;3.80;95.10;;;;;;4994177;28;20154;-55
2021/01/02 07:47:02;;;;;;;13.95;8.63;;;3.80;95.00;;;;;;4994056;28;20050;-56
2021/01/02 07:49:28;;;;;;;12.98;8.02;;;3.80;95.00;;;;;;4993936;28;20093;-56
2021/01/02 07:51:54;;;;;;;14.32;8.65;;;3.80;95.10;;;;;;4994384;28;20066;-56
2021/01/02 07:54:30;;;;;;;14.10;8.38;;;3.70;95.20;;;;;;4993987;28;20042;-56
2021/01/02 07:56:57;;;;;;;12.73;8.38;;;3.80;95.30;;;;;;4993949;28;20042;-55
2021/01/02 07:59:38;;;;;;;13.90;8.13;;;3.90;95.20;;;;;;4994208;28;20046;-56
2021/01/02 08:02:08;;;;;;;12.38;9.38;;;3.80;95.20;;;;;;4994334;28;20054;-56
2021/01/02 08:04:35;;;;;;;16.80;8.65;;;3.80;95.40;;;;;;4993861;28;20512;-56
2021/01/02 08:07:03;;;;;;;13.70;8.68;;;3.80;95.40;;;;;;4994005;28;20046;-56
2021/01/02 08:09:31;;;;;;;14.73;8.27;;;3.80;95.40;;;;;;4993788;28;20061;-55
2021/01/02 08:12:04;;;;;;;16.67;8.50;;;3.80;95.40;;;;;;4993855;28;20062;-56
2021/01/02 08:14:31;;;;;;;16.02;9.73;;;3.90;95.40;;;;;;4994083;28;20048;-56
2021/01/02 08:17:04;;;;;;;11.05;8.07;;;3.80;95.20;;;;;;4993732;28;20485;-56
2021/01/02 08:19:31;;;;;;;13.18;8.25;;;3.80;95.20;;;;;;4993702;28;20042;-55
2021/01/02 08:21:58;;;;;;;13.45;8.52;;;3.80;95.20;;;;;;4993742;28;20069;-55
2021/01/02 08:24:24;;;;;;;16.58;8.90;;;3.90;95.20;;;;;;4993636;28;20483;-55
2021/01/02 08:26:50;;;;;;;17.95;8.95;;;3.80;95.20;;;;;;4993927;28;20072;-56
2021/01/02 08:29:16;;;;;;;13.20;7.65;;;3.80;95.00;;;;;;4993667;28;20050;-56
2021/01/02 08:31:52;;;;;;;13.15;7.78;;;3.90;95.10;;;;;;4993648;28;20058;-56
2021/01/02 08:34:26;;;;;;;18.08;8.73;;;3.90;95.00;;;;;;4993572;28;20544;-55
2021/01/02 08:36:57;;;;;;;16.20;8.65;;;4.00;94.80;;;;;;4993665;28;20093;-55
2021/01/02 08:39:22;;;;;;;11.10;7.93;;;3.90;94.70;;;;;;4993450;28;20077;-56
2021/01/02 08:41:56;;;;;;;14.77;8.65;;;4.00;94.80;;;;;;4993318;28;20066;-56
2021/01/02 08:44:30;;;;;;;17.30;8.93;;;4.00;94.80;;;;;;4993198;28;20041;-56
2021/01/02 08:46:57;;;;;;;14.10;8.15;;;4.00;94.60;;;;;;4993098;28;20046;-55
2021/01/02 08:49:34;;;;;;;15.43;8.30;;;4.00;94.60;;;;;;4993176;28;20056;-55
2021/01/02 08:52:17;;;;;;;14.50;8.40;;;4.00;94.60;;;;;;4992137;28;20133;-56
2021/01/02 08:54:44;;;;;;;11.65;8.60;;;4.00;94.60;;;;;;4993502;28;20057;-56
2021/01/02 08:57:28;;;;;;;17.33;8.80;;;4.00;94.60;;;;;;4993234;28;20046;-56
2021/01/02 09:00:09;;;;;;;10.88;7.72;;;4.00;94.60;;;;;;4990425;28;20046;-56
2021/01/02 09:02:35;;;;;;;15.45;8.65;;;4.10;94.60;;;;;;4993082;28;20046;-56
2021/01/02 09:05:02;;;;;;;13.05;8.43;;;4.00;94.60;;;;;;4993070;28;20050;-56
2021/01/02 09:07:27;;;;;;;13.98;8.75;;;4.00;94.80;;;;;;4992788;28;20084;-55
2021/01/02 09:10:15;;;;;;;16.98;9.27;;;4.00;94.80;;;;;;4992936;28;20125;-55
2021/01/02 09:12:42;;;;;;;19.27;9.68;;;4.00;94.90;;;;;;4993060;28;20042;-56
2021/01/02 09:15:09;;;;;;;16.55;9.90;;;4.10;94.80;;;;;;4992878;28;20053;-56
2021/01/02 09:17:48;;;;;;;16.08;9.40;;;4.10;95.10;;;;;;4992543;28;20507;-55
2021/01/02 09:20:17;;;;;;;15.00;8.57;;;4.10;94.90;;;;;;4992943;28;20053;-56
2021/01/02 09:22:55;;;;;;;19.23;10.20;;;4.20;95.00;;;;;;4992917;28;20779;-56
2021/01/02 09:25:29;;;;;;;14.30;9.80;;;4.10;94.90;;;;;;4992880;28;20054;-56
2021/01/02 09:27:55;;;;;;;15.30;9.40;;;4.20;95.00;;;;;;4992735;28;20057;-56
2021/01/02 09:30:22;;;;;;;19.00;9.93;;;4.20;95.00;;;;;;4992708;28;20133;-55
2021/01/02 09:32:48;;;;;;;20.85;10.27;;;4.20;95.00;;;;;;4992835;28;20053;-55
2021/01/02 09:35:14;;;;;;;18.20;10.75;;;4.20;95.00;;;;;;4992531;28;20125;-56
2021/01/02 09:37:42;;;;;;;20.48;10.80;;;4.20;95.10;;;;;;4991696;28;20141;-56
2021/01/02 09:40:12;;;;;;;16.38;11.15;;;4.30;95.00;;;;;;4992778;28;20042;-56
2021/01/02 09:42:38;;;;;;;19.27;11.18;;;4.20;95.00;;;;;;4992657;28;20065;-55
2021/01/02 09:45:04;;;;;;;22.10;12.45;;;4.20;95.00;;;;;;4992270;28;20472;-55
2021/01/02 09:47:30;;;;;;;23.33;12.07;;;4.20;95.10;;;;;;4992394;28;20503;-56
2021/01/02 09:49:56;;;;;;;19.95;10.93;;;4.20;95.20;;;;;;4991158;28;20069;-56
2021/01/02 09:52:21;;;;;;;22.08;11.57;;;4.20;95.40;;;;;;4992868;28;20554;-56
2021/01/02 09:54:47;;;;;;;16.55;10.52;;;4.20;95.50;;;;;;4992544;28;20093;-56
2021/01/02 09:57:13;;;;;;;19.77;11.05;;;4.20;95.30;;;;;;4999744;28;20141;-56
2021/01/02 09:59:38;;;;;;;24.73;11.05;;;4.20;95.30;;;;;;5007106;28;20512;-56
2021/01/02 10:02:04;;;;;;;17.33;9.30;;;4.20;95.40;;;;;;5011608;28;20132;-56
2021/01/02 10:04:30;;;;;;;23.88;11.23;;;4.20;95.20;;;;;;5012109;28;20070;-55
2021/01/02 10:06:55;;;;;;;27.77;11.02;;;4.20;95.50;;;;;;5011982;28;20053;-56
2021/01/02 10:09:21;;;;;;;14.18;10.05;;;4.30;95.60;;;;;;5011791;28;20058;-56
2021/01/02 10:11:47;;;;;;;20.50;10.35;;;4.30;95.50;;;;;;5014059;28;20101;-56
2021/01/02 10:14:12;;;;;;;18.25;10.38;;;4.30;95.50;;;;;;5015808;28;20054;-56
2021/01/02 10:16:38;;;;;;;27.85;10.38;;;4.30;95.60;;;;;;5015543;28;20499;-56
2021/01/02 10:19:04;;;;;;;23.27;10.93;;;4.40;95.50;;;;;;5015876;28;20050;-56
2021/01/02 10:21:29;;;;;;;26.98;9.88;;;4.50;95.00;;;;;;5015583;28;20073;-55
2021/01/02 10:23:55;;;;;;;19.40;9.10;;;4.50;95.40;;;;;;5015484;28;20526;-56
2021/01/02 10:26:22;;;;;;;39.63;10.02;;;4.50;95.30;;;;;;5015486;28;20054;-56
2021/01/02 10:28:48;;;;;;;41.78;10.48;;;4.50;95.30;;;;;;5015477;28;20046;-56
2021/01/02 10:31:23;;;;;;;27.48;10.23;;;4.50;95.10;;;;;;5015204;28;20103;-56
2021/01/02 10:33:49;;;;;;;31.83;9.85;;;4.50;95.30;;;;;;5013677;28;20042;-56
2021/01/02 10:36:14;;;;;;;23.90;10.05;;;4.50;95.30;;;;;;5014817;28;20447;-56
2021/01/02 10:38:40;;;;;;;14.23;9.77;;;4.50;95.00;;;;;;5015377;28;20050;-55
2021/01/02 10:41:06;;;;;;;17.05;8.93;;;4.50;95.30;;;;;;5015109;28;20046;-55
2021/01/02 10:43:31;;;;;;;19.88;9.68;;;4.60;95.00;;;;;;5014983;28;20046;-56
2021/01/02 10:45:57;;;;;;;28.80;10.98;;;4.60;95.20;;;;;;5013449;28;20049;-56
2021/01/02 10:48:23;;;;;;;26.80;9.73;;;4.50;95.30;;;;;;5015190;28;20081;-56
2021/01/02 10:50:48;;;;;;;20.33;8.68;;;4.50;95.00;;;;;;5015111;28;20079;-56
2021/01/02 10:53:14;;;;;;;24.23;9.23;;;4.50;94.90;;;;;;5014907;28;20472;-56
2021/01/02 10:55:40;;;;;;;18.13;9.48;;;4.50;94.90;;;;;;5014732;28;20077;-56
2021/01/02 10:58:05;;;;;;;16.33;9.13;;;4.50;95.30;;;;;;5014769;28;20039;-56
2021/01/02 11:00:31;;;;;;;14.43;9.05;;;4.60;95.30;;;;;;5014629;28;20041;-56
2021/01/02 11:02:56;;;;;;;15.73;9.48;;;4.60;95.10;;;;;;5014890;28;20042;-56
2021/01/02 11:05:22;;;;;;;15.68;9.55;;;4.60;95.30;;;;;;5014966;28;20045;-56
2021/01/02 11:07:48;;;;;;;16.10;9.93;;;4.60;95.50;;;;;;5014583;28;20108;-56
2021/01/02 11:10:14;;;;;;;15.75;8.93;;;4.60;95.30;;;;;;5014646;28;20064;-56
2021/01/02 11:12:39;;;;;;;11.38;8.32;;;4.70;95.10;;;;;;5014664;28;20046;-56
2021/01/02 11:15:07;;;;;;;14.25;8.77;;;4.50;95.00;;;;;;5014508;28;20046;-55
2021/01/02 11:17:34;;;;;;;12.23;8.25;;;4.60;95.00;;;;;;5014632;28;20055;-56
2021/01/02 11:20:00;;;;;;;13.27;8.88;;;4.70;95.00;;;;;;5014090;28;20121;-56
2021/01/02 11:22:25;;;;;;;15.35;8.77;;;4.70;95.10;;;;;;5013727;28;20189;-56
2021/01/02 11:24:51;;;;;;;14.00;8.27;;;4.70;94.80;;;;;;5014689;28;20069;-56
2021/01/02 11:27:20;;;;;;;15.95;8.88;;;4.70;94.70;;;;;;5000200;28;20051;-56
2021/01/02 11:29:46;;;;;;;13.95;7.93;;;4.70;94.80;;;;;;4992174;28;20050;-56
2021/01/02 11:32:12;;;;;;;13.55;8.10;;;4.80;94.80;;;;;;4994653;28;20050;-56
2021/01/02 11:34:39;;;;;;;13.25;9.07;;;4.80;95.10;;;;;;4994492;28;20039;-56
2021/01/02 11:37:06;;;;;;;14.05;8.68;;;4.80;94.80;;;;;;4994359;28;20050;-56
2021/01/02 11:39:32;;;;;;;13.30;8.95;;;4.80;94.80;;;;;;4994556;28;20050;-55
2021/01/02 11:42:03;;;;;;;11.93;8.00;;;4.80;94.90;;;;;;4994226;28;20401;-56
2021/01/02 11:44:28;;;;;;;18.90;9.90;;;4.80;95.00;;;;;;4994371;28;20057;-56
2021/01/02 11:46:56;;;;;;;17.50;10.05;;;4.80;94.70;;;;;;4994480;28;20054;-56
2021/01/02 11:49:29;;;;;;;20.20;9.68;;;4.80;94.90;;;;;;4994552;28;20050;-56
2021/01/02 11:51:57;;;;;;;19.25;9.18;;;4.80;94.70;;;;;;4994585;28;20049;-55
2021/01/02 11:54:24;;;;;;;21.58;9.30;;;4.80;94.80;;;;;;4997388;28;20046;-55
2021/01/02 11:56:50;;;;;;;22.20;9.00;;;4.80;94.80;;;;;;4991381;28;20034;-55
2021/01/02 11:59:16;;;;;;;13.70;8.82;;;4.70;94.60;;;;;;4992568;28;20042;-55
2021/01/02 12:01:48;;;;;;;16.67;9.00;;;4.80;94.80;;;;;;4991061;28;20089;-55
2021/01/02 12:04:16;;;;;;;12.35;8.45;;;4.70;94.70;;;;;;4993810;28;20192;-55
2021/01/02 12:06:42;;;;;;;11.70;8.57;;;4.80;94.50;;;;;;4991159;28;20443;-55
2021/01/02 12:09:10;;;;;;;12.00;8.82;;;4.80;94.50;;;;;;4993448;28;20062;-55
2021/01/02 12:11:39;;;;;;;13.23;8.73;;;4.90;94.50;;;;;;4993345;28;20058;-56
2021/01/02 12:14:06;;;;;;;11.75;8.30;;;4.90;94.50;;;;;;4994001;28;20073;-56
2021/01/02 12:16:40;;;;;;;12.82;8.43;;;4.80;94.40;;;;;;4993667;28;20053;-56
2021/01/02 12:19:08;;;;;;;9.85;7.07;;;4.90;94.80;;;;;;4993648;28;20052;-56
2021/01/02 12:21:34;;;;;;;10.18;7.90;;;4.90;94.20;;;;;;4993819;28;20054;-56
2021/01/02 12:23:59;;;;;;;8.82;7.00;;;4.90;94.10;;;;;;4993735;28;20088;-56
2021/01/02 12:26:26;;;;;;;11.85;7.82;;;5.00;94.40;;;;;;4993319;28;20137;-56
2021/01/02 12:28:53;;;;;;;11.02;7.72;;;4.90;94.30;;;;;;4993223;28;20721;-56
2021/01/02 12:31:22;;;;;;;10.70;7.30;;;4.90;94.40;;;;;;4993556;28;20050;-56
2021/01/02 12:33:48;;;;;;;;;;;5.00;94.40;;;;;;4993703;28;20105;-55
2021/01/02 12:36:16;;;;;;;10.90;7.03;;;5.00;94.50;;;;;;4992028;28;19929;-56
2021/01/02 12:38:42;;;;;;;11.52;8.55;;;5.00;94.20;;;;;;4993641;28;20046;-56
2021/01/02 12:41:20;;;;;;;13.15;8.98;;;5.00;94.20;;;;;;4993452;28;20050;-56
2021/01/02 12:43:46;;;;;;;13.90;9.13;;;5.00;94.00;;;;;;4993390;28;20393;-56
2021/01/02 12:46:13;;;;;;;12.07;9.20;;;5.00;94.50;;;;;;4993125;28;20046;-56
2021/01/02 12:48:39;;;;;;;17.23;9.98;;;5.10;94.40;;;;;;5008881;28;20053;-56
2021/01/02 12:51:06;;;;;;;16.77;9.68;;;5.00;94.30;;;;;;5012649;28;20463;-56
2021/01/02 12:53:33;;;;;;;14.85;9.65;;;5.00;94.40;;;;;;5012799;28;20466;-56
2021/01/02 12:55:58;;;;;;;13.27;9.43;;;5.10;94.90;;;;;;5012696;28;20049;-56
2021/01/02 12:58:24;;;;;;;13.68;10.20;;;5.00;94.60;;;;;;5012586;28;20403;-56
2021/01/02 13:00:50;;;;;;;15.63;10.65;;;5.10;94.80;;;;;;5012503;28;20053;-56
2021/01/02 13:03:15;;;;;;;18.25;9.77;;;5.10;94.70;;;;;;5012496;28;20041;-56